Time;durP1;ratioP1;P1;durP2;ratioP2;P2;SDS_P1;SDS_P2;PMS_P1;PMS_P2;Temp;Humidity;BMP_temperature;BMP_pressure;BME280_temperature;BME280_humidity;BME280_pressure;Samples;Min_cycle;Max_cycle;Signal;HPM_P1;HPM_P2
2022/12/11 00:01:58;;;;;;;4.38;2.30;;;4.90;99.90;;;;;;4954271;29;20487;-78
2022/12/11 00:04:26;;;;;;;4.75;2.30;;;4.90;99.90;;;;;;4953774;29;20055;-77
2022/12/11 00:06:53;;;;;;;5.97;2.83;;;4.90;99.90;;;;;;4954523;29;20051;-79
2022/12/11 00:09:21;;;;;;;4.97;2.40;;;4.80;99.90;;;;;;4952966;28;20047;-78
2022/12/11 00:11:50;;;;;;;5.40;2.72;;;4.80;99.90;;;;;;4953103;28;20039;-79
2022/12/11 00:14:17;;;;;;;5.68;2.60;;;4.80;99.90;;;;;;4957882;29;20102;-80
2022/12/11 00:16:48;;;;;;;4.35;2.10;;;4.70;99.90;;;;;;4962549;29;20054;-78
2022/12/11 00:19:16;;;;;;;5.53;2.35;;;4.60;99.90;;;;;;4961631;28;20154;-77
2022/12/11 00:21:43;;;;;;;5.18;2.80;;;4.60;99.90;;;;;;4960079;29;20055;-79
2022/12/11 00:24:10;;;;;;;6.25;3.08;;;4.60;99.90;;;;;;4963439;29;20115;-78
2022/12/11 00:26:38;;;;;;;7.35;3.30;;;4.50;99.90;;;;;;4958089;29;20047;-78
2022/12/11 00:29:09;;;;;;;4.28;2.13;;;4.50;99.90;;;;;;4936403;29;20043;-77
2022/12/11 00:31:37;;;;;;;8.10;3.53;;;4.50;99.90;;;;;;4952105;29;20098;-78
2022/12/11 00:34:04;;;;;;;6.60;3.53;;;4.50;99.90;;;;;;4953413;29;20046;-77
2022/12/11 00:36:31;;;;;;;6.53;3.05;;;4.40;99.90;;;;;;4953580;29;20035;-76
2022/12/11 00:38:59;;;;;;;5.05;2.30;;;4.30;99.90;;;;;;4949919;28;20043;-78
2022/12/11 00:41:26;;;;;;;6.68;2.25;;;4.30;99.90;;;;;;4956340;29;20066;-78
2022/12/11 00:43:53;;;;;;;8.02;3.10;;;4.20;99.90;;;;;;4953539;29;20502;-78
2022/12/11 00:46:22;;;;;;;6.32;2.67;;;4.00;99.90;;;;;;4952877;29;20031;-77
2022/12/11 00:48:50;;;;;;;6.05;2.28;;;3.90;99.90;;;;;;4933636;28;20058;-81
2022/12/11 00:51:17;;;;;;;5.03;2.08;;;3.80;99.90;;;;;;4954074;29;20039;-82
2022/12/11 00:53:45;;;;;;;4.43;1.95;;;3.70;99.90;;;;;;4954179;29;20039;-82
2022/12/11 00:56:14;;;;;;;4.93;2.35;;;3.70;99.90;;;;;;4953497;29;20580;-81
2022/12/11 00:58:42;;;;;;;5.97;2.42;;;3.70;99.90;;;;;;4953104;28;20047;-82
2022/12/11 01:01:12;;;;;;;4.47;2.10;;;3.60;99.90;;;;;;4951228;29;20519;-82
2022/12/11 01:03:41;;;;;;;4.63;2.35;;;3.50;99.90;;;;;;4952871;29;20043;-82
2022/12/11 01:06:13;;;;;;;5.68;2.85;;;3.40;99.90;;;;;;4952412;29;20043;-83
2022/12/11 01:08:40;;;;;;;4.50;1.90;;;3.40;99.90;;;;;;4952548;28;20039;-83
2022/12/11 01:11:09;;;;;;;4.50;1.80;;;3.40;99.90;;;;;;4953067;29;20510;-81
2022/12/11 01:13:36;;;;;;;2.67;1.38;;;3.30;99.90;;;;;;4953470;29;20080;-81
2022/12/11 01:16:07;;;;;;;4.00;1.58;;;3.30;99.90;;;;;;4952900;29;20055;-81
2022/12/11 01:18:35;;;;;;;3.85;1.83;;;3.30;99.90;;;;;;4935165;29;20139;-83
2022/12/11 01:21:08;;;;;;;3.05;1.50;;;3.20;99.90;;;;;;4954004;28;20070;-82
2022/12/11 01:23:36;;;;;;;3.20;1.50;;;3.20;99.90;;;;;;4959826;28;20122;-83
2022/12/11 01:26:07;;;;;;;3.50;1.40;;;3.20;99.90;;;;;;4960261;28;20066;-83
2022/12/11 01:28:35;;;;;;;3.30;1.52;;;3.00;99.90;;;;;;4959336;28;20423;-83
2022/12/11 01:31:03;;;;;;;3.45;1.73;;;3.10;99.90;;;;;;4959494;29;20046;-82
2022/12/11 01:33:30;;;;;;;3.55;1.67;;;3.10;99.90;;;;;;4963100;28;20036;-84
2022/12/11 01:35:58;;;;;;;3.53;1.58;;;3.00;99.90;;;;;;4945305;29;20499;-84
2022/12/11 01:38:27;;;;;;;3.55;2.03;;;3.00;99.90;;;;;;4962293;28;20051;-83
2022/12/11 01:40:54;;;;;;;4.10;1.75;;;3.00;99.90;;;;;;4960680;28;20047;-84
2022/12/11 01:43:22;;;;;;;4.13;1.70;;;2.90;99.90;;;;;;4960835;29;20039;-84
2022/12/11 01:45:49;;;;;;;2.47;1.13;;;2.90;99.90;;;;;;4959537;29;20102;-84
2022/12/11 01:48:21;;;;;;;2.47;1.10;;;2.80;99.90;;;;;;4960735;28;20054;-84
2022/12/11 01:50:52;;;;;;;2.55;1.15;;;2.70;99.90;;;;;;4960711;29;20047;-82
2022/12/11 01:53:23;;;;;;;2.92;1.10;;;2.80;99.90;;;;;;4962034;29;20495;-84
2022/12/11 01:55:54;;;;;;;14.65;8.80;;;2.70;99.90;;;;;;4956317;29;20055;-82
2022/12/11 01:58:26;;;;;;;21.27;13.20;;;2.80;99.90;;;;;;4960417;28;20059;-83
2022/12/11 02:00:54;;;;;;;7.93;4.13;;;2.90;99.90;;;;;;4961105;29;20038;-83
2022/12/11 02:03:22;;;;;;;9.73;6.13;;;2.90;99.90;;;;;;4963756;28;20069;-81
2022/12/11 02:05:50;;;;;;;4.03;1.83;;;2.90;99.90;;;;;;4959880;29;20078;-83
2022/12/11 02:08:17;;;;;;;3.42;1.50;;;2.90;99.90;;;;;;4960022;29;20422;-83
2022/12/11 02:10:56;;;;;;;2.38;1.38;;;3.00;99.90;;;;;;4959081;28;20054;-83
2022/12/11 02:13:35;;;;;;;2.40;1.15;;;3.00;99.90;;;;;;4959318;28;20047;-83
2022/12/11 02:16:10;;;;;;;2.80;1.35;;;3.00;99.90;;;;;;4959579;29;20522;-83
2022/12/11 02:18:39;;;;;;;;;;;2.90;99.90;;;;;;4958811;29;20039;-84
2022/12/11 02:21:13;;;;;;;2.45;1.10;;;2.90;99.90;;;;;;4958925;23;19933;-74
2022/12/11 02:24:07;;;;;;;2.65;1.08;;;3.00;99.90;;;;;;4962757;29;20039;-75
2022/12/11 02:26:51;;;;;;;3.25;1.20;;;3.00;99.90;;;;;;4960317;29;20066;-74
2022/12/11 02:29:26;;;;;;;2.53;1.15;;;2.90;99.90;;;;;;4960601;28;20658;-75
2022/12/11 02:32:01;;;;;;;2.72;1.42;;;3.00;99.90;;;;;;4961655;29;20257;-74
2022/12/11 02:34:35;;;;;;;2.97;1.63;;;3.00;99.90;;;;;;4958151;28;20196;-77
2022/12/11 02:37:08;;;;;;;2.90;1.33;;;3.00;99.90;;;;;;4958186;29;20051;-75
2022/12/11 02:39:40;;;;;;;3.00;1.52;;;3.00;99.90;;;;;;4957137;28;20043;-75
2022/12/11 02:42:09;;;;;;;3.40;1.92;;;3.10;99.90;;;;;;4954324;29;20051;-74
2022/12/11 02:44:40;;;;;;;3.63;1.80;;;3.10;99.90;;;;;;4959026;29;20043;-73
2022/12/11 02:47:12;;;;;;;3.20;1.80;;;3.10;99.90;;;;;;4957552;29;20051;-75
2022/12/11 02:49:42;;;;;;;3.60;1.65;;;3.10;99.90;;;;;;4957021;29;20035;-73
2022/12/11 02:52:14;;;;;;;2.83;1.52;;;3.20;99.90;;;;;;4956803;29;20039;-75
2022/12/11 02:54:44;;;;;;;3.10;1.77;;;3.20;99.90;;;;;;4957565;29;20043;-73
2022/12/11 02:57:16;;;;;;;4.30;1.63;;;3.20;99.90;;;;;;4958117;29;20035;-77
2022/12/11 02:59:46;;;;;;;2.88;1.50;;;3.20;99.90;;;;;;4961809;29;20134;-76
2022/12/11 03:02:15;;;;;;;3.50;1.75;;;3.20;99.90;;;;;;4959050;29;20399;-75
2022/12/11 03:04:43;;;;;;;3.38;2.15;;;3.20;99.90;;;;;;4957580;29;20091;-74
2022/12/11 03:07:15;;;;;;;3.58;1.70;;;3.20;99.90;;;;;;4956894;29;20102;-74
2022/12/11 03:09:45;;;;;;;2.78;1.70;;;3.20;99.90;;;;;;4957061;28;20074;-74
2022/12/11 03:12:17;;;;;;;3.75;2.00;;;3.30;99.90;;;;;;4957369;29;20081;-74
2022/12/11 03:14:48;;;;;;;3.22;1.98;;;3.20;99.90;;;;;;4957060;29;20081;-75
2022/12/11 03:17:18;;;;;;;3.90;2.10;;;3.30;99.90;;;;;;4955987;29;20039;-73
2022/12/11 03:19:55;;;;;;;4.18;2.10;;;3.20;99.90;;;;;;4956473;28;20055;-75
2022/12/11 03:22:32;;;;;;;3.75;1.75;;;3.20;99.90;;;;;;4957040;29;20071;-73
2022/12/11 03:25:02;;;;;;;4.00;2.05;;;3.20;99.90;;;;;;4956915;29;20447;-74
2022/12/11 03:27:36;;;;;;;3.42;1.88;;;3.10;99.90;;;;;;4956309;29;20042;-74
2022/12/11 03:30:10;;;;;;;4.28;1.92;;;3.10;99.90;;;;;;4955272;28;20047;-74
2022/12/11 03:32:42;;;;;;;4.28;2.30;;;3.10;99.90;;;;;;4958967;29;20047;-73
2022/12/11 03:35:14;;;;;;;5.22;2.30;;;3.10;99.90;;;;;;4956250;29;20118;-75
2022/12/11 03:37:43;;;;;;;4.45;2.08;;;3.10;99.90;;;;;;4955818;29;20051;-73
2022/12/11 03:40:15;;;;;;;4.60;2.40;;;3.10;99.90;;;;;;4955378;29;20094;-74
2022/12/11 03:42:44;;;;;;;5.13;2.05;;;3.10;99.90;;;;;;4956267;29;20070;-74
2022/12/11 03:45:14;;;;;;;4.10;2.10;;;3.10;99.90;;;;;;4954327;28;20043;-74
2022/12/11 03:47:43;;;;;;;3.83;2.10;;;3.10;99.90;;;;;;4958797;29;20043;-76
2022/12/11 03:50:14;;;;;;;3.38;2.15;;;3.00;99.90;;;;;;4956346;29;20043;-74
2022/12/11 03:52:44;;;;;;;5.32;2.70;;;3.00;99.90;;;;;;4955640;29;20046;-75
2022/12/11 03:55:14;;;;;;;5.30;3.08;;;3.10;99.90;;;;;;4939325;29;20039;-76
2022/12/11 03:57:41;;;;;;;3.90;2.17;;;3.10;99.90;;;;;;4955393;29;20043;-76
2022/12/11 04:00:14;;;;;;;5.22;2.63;;;3.20;99.90;;;;;;4955401;28;20039;-76
2022/12/11 04:02:41;;;;;;;6.50;3.00;;;3.20;99.90;;;;;;4955178;29;20043;-75
2022/12/11 04:05:09;;;;;;;6.35;3.05;;;3.20;99.90;;;;;;4956118;29;20078;-76
2022/12/11 04:07:37;;;;;;;5.05;2.60;;;3.20;99.90;;;;;;4956318;29;20455;-75
2022/12/11 04:10:05;;;;;;;5.57;3.00;;;3.20;99.90;;;;;;4955568;28;20046;-74
2022/12/11 04:12:32;;;;;;;5.72;3.55;;;3.30;99.90;;;;;;4955028;29;20047;-74
2022/12/11 04:15:02;;;;;;;5.97;2.97;;;3.20;99.90;;;;;;4955910;29;20035;-74
2022/12/11 04:25:48;;;;;;;8.15;3.85;;;3.30;99.90;;;;;;4969387;29;20035;-75
2022/12/11 04:28:15;;;;;;;7.45;3.47;;;3.30;99.90;;;;;;4961245;29;20082;-74
2022/12/11 04:30:49;;;;;;;10.63;3.65;;;3.40;99.90;;;;;;4955696;29;20039;-77
2022/12/11 04:33:18;;;;;;;8.65;3.78;;;3.40;99.90;;;;;;4938050;29;20411;-78
2022/12/11 04:35:45;;;;;;;5.75;3.33;;;3.40;99.90;;;;;;4938971;29;20097;-75
2022/12/11 04:38:13;;;;;;;5.57;3.10;;;3.40;99.90;;;;;;4958309;29;20050;-75
2022/12/11 04:40:41;;;;;;;6.07;3.25;;;3.30;99.90;;;;;;4970123;29;20043;-73
2022/12/11 04:43:08;;;;;;;6.70;3.15;;;3.40;99.90;;;;;;4953870;29;20051;-75
2022/12/11 04:45:35;;;;;;;5.30;2.90;;;3.30;99.90;;;;;;4965566;29;20071;-75
2022/12/11 04:48:03;;;;;;;5.30;2.90;;;3.30;99.90;;;;;;4963312;29;20043;-75
2022/12/11 04:50:31;;;;;;;7.35;3.30;;;3.30;99.90;;;;;;4958497;29;20092;-75
2022/12/11 04:52:58;;;;;;;7.78;3.55;;;3.30;99.90;;;;;;4960309;29;20070;-75
2022/12/11 04:55:26;;;;;;;6.75;3.40;;;3.30;99.90;;;;;;4959591;29;20066;-76
2022/12/11 04:57:53;;;;;;;6.75;3.50;;;3.30;99.90;;;;;;4955347;28;20078;-75
2022/12/11 05:00:21;;;;;;;6.43;3.78;;;3.30;99.90;;;;;;4956364;29;20053;-75
2022/12/11 05:02:49;;;;;;;6.80;3.90;;;3.30;99.90;;;;;;4956558;29;20050;-77
2022/12/11 05:05:16;;;;;;;6.00;3.92;;;3.30;99.90;;;;;;4941978;29;20043;-76
2022/12/11 05:07:45;;;;;;;6.93;3.88;;;3.40;99.90;;;;;;4964903;29;20058;-77
2022/12/11 05:10:12;;;;;;;6.93;3.95;;;3.40;99.90;;;;;;4968858;29;20043;-75
2022/12/11 05:12:40;;;;;;;7.82;4.43;;;3.40;99.90;;;;;;4957952;29;20098;-77
2022/12/11 05:15:08;;;;;;;6.80;3.97;;;3.50;99.90;;;;;;4956552;29;20046;-76
2022/12/11 05:17:35;;;;;;;7.00;3.55;;;3.50;99.90;;;;;;4956613;29;20051;-77
2022/12/11 05:20:03;;;;;;;8.77;4.57;;;3.50;99.90;;;;;;4939783;29;20114;-78
2022/12/11 05:22:31;;;;;;;6.65;4.13;;;3.50;99.90;;;;;;4959723;29;20055;-79
2022/12/11 05:24:59;;;;;;;9.63;4.43;;;3.40;99.90;;;;;;4959692;29;20039;-76
2022/12/11 05:27:27;;;;;;;9.57;5.05;;;3.40;99.90;;;;;;4940107;29;20047;-78
2022/12/11 05:29:54;;;;;;;8.70;4.43;;;3.50;99.90;;;;;;4956659;28;20047;-77
2022/12/11 05:32:21;;;;;;;7.40;4.25;;;3.50;99.90;;;;;;4957472;29;20138;-78
2022/12/11 05:34:50;;;;;;;7.38;4.55;;;3.60;99.90;;;;;;4957389;29;20191;-78
2022/12/11 05:37:18;;;;;;;8.02;4.88;;;3.60;99.90;;;;;;4957503;29;20047;-79
2022/12/11 05:39:45;;;;;;;5.78;3.92;;;3.60;99.90;;;;;;4964847;29;20043;-78
2022/12/11 05:42:14;;;;;;;6.75;4.22;;;3.50;99.90;;;;;;4967990;29;20039;-77
2022/12/11 05:44:41;;;;;;;7.15;4.28;;;3.60;99.90;;;;;;4965603;29;20051;-77
2022/12/11 05:47:08;;;;;;;7.82;4.55;;;3.60;99.90;;;;;;4965901;29;20047;-77
2022/12/11 05:49:36;;;;;;;7.50;4.75;;;3.50;99.90;;;;;;4964124;28;20043;-77
2022/12/11 05:52:04;;;;;;;8.38;4.85;;;3.50;99.90;;;;;;4970050;29;20047;-76
2022/12/11 05:54:31;;;;;;;9.18;5.50;;;3.50;99.90;;;;;;4961956;29;20400;-78
2022/12/11 05:56:58;;;;;;;7.10;4.88;;;3.50;99.90;;;;;;4965598;29;20172;-76
2022/12/11 05:59:27;;;;;;;12.77;4.97;;;3.50;99.90;;;;;;4972385;29;20047;-78
2022/12/11 06:01:54;;;;;;;7.80;5.20;;;3.50;99.90;;;;;;4973607;29;20059;-77
2022/12/11 06:04:22;;;;;;;12.13;5.68;;;3.50;99.90;;;;;;4972733;29;20055;-77
2022/12/11 06:06:49;;;;;;;8.20;5.13;;;3.50;99.90;;;;;;4974106;29;20047;-78
2022/12/11 06:09:17;;;;;;;9.52;5.07;;;3.50;99.90;;;;;;4975623;28;20051;-79
2022/12/11 06:11:44;;;;;;;10.98;5.13;;;3.60;99.90;;;;;;4972835;29;20083;-79
2022/12/11 06:14:13;;;;;;;8.52;5.30;;;3.60;99.90;;;;;;4960072;29;20043;-79
2022/12/11 06:16:43;;;;;;;6.78;4.00;;;3.60;99.90;;;;;;4968209;29;20043;-80
2022/12/11 06:19:15;;;;;;;6.13;3.92;;;3.60;99.90;;;;;;4971723;29;20067;-76
2022/12/11 06:21:42;;;;;;;6.38;3.80;;;3.70;99.90;;;;;;4972489;29;20051;-78
2022/12/11 06:24:11;;;;;;;7.32;4.28;;;3.70;99.90;;;;;;4964811;29;20044;-78
2022/12/11 06:26:39;;;;;;;17.23;13.18;;;3.70;99.90;;;;;;4961764;29;20047;-78
2022/12/11 06:29:06;;;;;;;17.35;14.40;;;3.70;99.90;;;;;;4960524;28;20054;-78
2022/12/11 06:31:33;;;;;;;11.63;6.88;;;3.60;99.90;;;;;;4940737;29;20138;-77
2022/12/11 06:34:02;;;;;;;13.48;9.55;;;3.70;99.90;;;;;;4942505;29;20487;-77
2022/12/11 06:36:30;;;;;;;10.65;7.72;;;3.70;99.90;;;;;;4959729;29;20110;-76
2022/12/11 06:38:58;;;;;;;9.77;6.25;;;3.70;99.90;;;;;;4958486;28;20047;-76
2022/12/11 06:41:25;;;;;;;11.30;6.80;;;3.70;99.90;;;;;;4955488;29;20051;-76
2022/12/11 06:43:52;;;;;;;10.30;6.63;;;3.70;99.90;;;;;;4940986;29;20511;-77
2022/12/11 06:46:20;;;;;;;9.82;6.70;;;3.70;99.90;;;;;;4958504;29;20042;-77
2022/12/11 06:48:48;;;;;;;11.02;7.32;;;3.70;99.90;;;;;;4958004;29;20114;-76
2022/12/11 06:51:19;;;;;;;13.63;7.75;;;3.70;99.90;;;;;;4957782;29;20110;-76
2022/12/11 06:53:51;;;;;;;12.95;7.15;;;3.70;99.90;;;;;;4958047;29;20051;-76
2022/12/11 06:56:19;;;;;;;11.25;6.95;;;3.70;99.90;;;;;;4958780;29;20071;-79
2022/12/11 06:58:47;;;;;;;12.70;7.45;;;3.80;99.90;;;;;;4957010;29;20047;-77
2022/12/11 07:01:16;;;;;;;10.65;6.72;;;3.90;99.90;;;;;;4956517;29;20051;-78
2022/12/11 07:03:44;;;;;;;12.88;6.75;;;3.90;99.90;;;;;;4958357;29;20552;-76
2022/12/11 07:06:11;;;;;;;11.40;7.07;;;3.90;99.90;;;;;;4957894;29;20047;-75
2022/12/11 07:08:40;;;;;;;10.57;7.18;;;3.90;99.90;;;;;;4939941;29;20044;-76
2022/12/11 07:11:09;;;;;;;11.05;7.03;;;3.80;99.90;;;;;;4957804;29;20043;-77
2022/12/11 07:13:37;;;;;;;11.32;7.63;;;3.80;99.90;;;;;;4957863;29;20038;-77
2022/12/11 07:16:09;;;;;;;11.15;7.78;;;3.90;99.90;;;;;;4958378;29;20039;-79
2022/12/11 07:18:37;;;;;;;13.35;8.70;;;4.10;99.90;;;;;;4957102;28;20510;-76
2022/12/11 07:21:05;;;;;;;10.70;6.63;;;4.20;99.90;;;;;;4956886;28;20054;-79
2022/12/11 07:23:34;;;;;;;9.90;6.80;;;4.10;99.90;;;;;;4959629;29;20047;-77
2022/12/11 07:26:06;;;;;;;11.75;7.50;;;4.10;99.90;;;;;;4958390;29;20043;-75
2022/12/11 07:28:35;;;;;;;11.95;7.25;;;4.10;99.90;;;;;;4958022;28;20051;-78
2022/12/11 07:31:06;;;;;;;12.07;7.63;;;4.10;99.90;;;;;;4958510;29;20047;-76
2022/12/11 07:33:33;;;;;;;16.95;9.65;;;4.10;99.90;;;;;;4958066;29;20043;-74
2022/12/11 07:36:02;;;;;;;16.20;9.48;;;4.10;99.90;;;;;;4957628;29;20066;-76
2022/12/11 07:38:30;;;;;;;19.13;9.77;;;4.10;99.90;;;;;;4957725;29;20051;-75
2022/12/11 07:41:01;;;;;;;29.58;13.45;;;4.10;99.90;;;;;;4955940;29;20122;-73
2022/12/11 07:43:30;;;;;;;29.83;14.65;;;4.00;99.90;;;;;;4943697;29;20119;-79
2022/12/11 07:46:01;;;;;;;43.53;19.92;;;4.00;99.90;;;;;;4975290;29;20043;-75
2022/12/11 07:48:29;;;;;;;47.50;21.02;;;4.00;99.90;;;;;;4947048;29;20071;-76
2022/12/11 07:50:56;;;;;;;55.95;24.35;;;4.10;99.90;;;;;;4959332;29;20048;-77
2022/12/11 07:53:24;;;;;;;53.97;26.33;;;4.10;99.90;;;;;;4964048;29;20051;-76
2022/12/11 07:55:52;;;;;;;65.00;30.48;;;4.10;99.90;;;;;;4971069;29;20055;-77
2022/12/11 07:58:22;;;;;;;64.30;29.80;;;4.20;99.90;;;;;;4960374;29;20057;-79
2022/12/11 08:00:55;;;;;;;83.22;40.13;;;4.20;99.90;;;;;;4976581;28;20039;-78
2022/12/11 08:03:25;;;;;;;88.38;39.55;;;4.30;99.90;;;;;;4974452;29;20111;-76
2022/12/11 08:06:03;;;;;;;96.28;43.88;;;4.20;99.90;;;;;;4964887;29;20130;-78
2022/12/11 08:08:40;;;;;;;107.07;45.03;;;4.30;99.90;;;;;;4961990;29;20046;-78
2022/12/11 08:11:10;;;;;;;102.75;42.65;;;4.40;99.90;;;;;;4951158;29;20039;-77
2022/12/11 08:13:37;;;;;;;91.53;37.53;;;4.40;99.90;;;;;;4959051;29;20054;-76
2022/12/11 08:16:08;;;;;;;85.13;35.35;;;4.50;99.90;;;;;;4957638;29;20058;-75
2022/12/11 08:18:37;;;;;;;76.22;32.00;;;4.50;99.90;;;;;;4957285;29;20094;-76
2022/12/11 08:21:06;;;;;;;69.38;29.30;;;4.50;99.90;;;;;;5010510;23;20058;-89
2022/12/11 08:23:34;;;;;;;68.45;29.75;;;4.50;99.90;;;;;;4956860;29;20110;-86
2022/12/11 08:26:03;;;;;;;66.95;30.02;;;4.50;99.90;;;;;;4938373;29;20086;-88
2022/12/11 08:28:31;;;;;;;74.25;32.80;;;4.50;99.90;;;;;;4955057;28;20043;-92
2022/12/11 08:31:00;;;;;;;77.00;32.25;;;4.50;99.90;;;;;;4941459;29;20036;-91
2022/12/11 08:33:29;;;;;;;62.67;28.75;;;4.50;99.90;;;;;;4957490;29;20515;-90
2022/12/11 08:35:57;;;;;;;69.72;31.88;;;4.50;99.90;;;;;;4941932;29;20070;-94
2022/12/11 08:38:25;;;;;;;72.70;31.25;;;4.40;99.90;;;;;;4960573;28;20043;-94
2022/12/11 08:40:52;;;;;;;58.08;29.52;;;4.40;99.90;;;;;;4965633;29;20031;-92
2022/12/11 08:43:19;;;;;;;65.95;30.25;;;4.40;99.90;;;;;;4943009;29;20047;-87
2022/12/11 08:46:02;;;;;;;57.10;30.40;;;4.50;99.90;;;;;;4959504;29;20039;-89
2022/12/11 08:48:31;;;;;;;62.30;29.50;;;4.50;99.90;;;;;;4951565;29;20043;-87
2022/12/11 08:51:01;;;;;;;59.97;30.17;;;4.60;99.90;;;;;;4960320;29;20039;-87
2022/12/11 08:53:29;;;;;;;51.10;27.77;;;4.60;99.90;;;;;;4970903;29;20051;-87
2022/12/11 08:56:02;;;;;;;55.75;31.33;;;4.60;99.90;;;;;;4961593;28;20716;-89
2022/12/11 08:58:29;;;;;;;59.55;32.58;;;4.60;99.90;;;;;;4939280;29;20043;-91
2022/12/11 09:00:58;;;;;;;53.25;31.38;;;4.60;99.90;;;;;;4939136;29;20047;-89
2022/12/11 09:03:25;;;;;;;56.00;30.40;;;4.70;99.90;;;;;;4956011;29;20054;-89
2022/12/11 09:05:54;;;;;;;46.63;26.70;;;4.70;99.90;;;;;;4956366;29;20039;-89
2022/12/11 09:08:22;;;;;;;41.42;24.23;;;4.70;99.90;;;;;;4955428;29;20050;-90
2022/12/11 09:10:49;;;;;;;38.78;21.83;;;4.70;99.90;;;;;;4955731;29;20043;-89
2022/12/11 09:13:17;;;;;;;39.72;23.10;;;4.70;99.90;;;;;;4938205;29;20054;-87
2022/12/11 09:15:44;;;;;;;36.17;20.80;;;4.80;99.90;;;;;;4955893;29;20051;-87
2022/12/11 09:18:12;;;;;;;36.55;19.05;;;4.80;99.90;;;;;;4956013;28;20098;-88
2022/12/11 09:20:40;;;;;;;33.63;17.13;;;4.90;99.90;;;;;;4955670;29;20055;-87
2022/12/11 09:23:12;;;;;;;28.27;17.15;;;4.90;99.90;;;;;;4954719;29;20090;-88
2022/12/11 09:25:40;;;;;;;31.75;17.23;;;4.90;99.90;;;;;;4955428;29;20043;-88
2022/12/11 09:28:08;;;;;;;29.02;17.00;;;5.00;99.90;;;;;;4955800;28;20071;-89
2022/12/11 09:30:36;;;;;;;32.13;17.40;;;5.00;99.90;;;;;;4937407;29;20047;-89
2022/12/11 09:33:03;;;;;;;29.13;16.25;;;5.00;99.90;;;;;;4938583;29;20055;-89
2022/12/11 09:35:30;;;;;;;24.17;16.08;;;5.00;99.90;;;;;;4939201;29;20086;-88
2022/12/11 09:38:01;;;;;;;27.58;15.55;;;5.00;99.90;;;;;;4955603;28;20092;-89
2022/12/11 09:40:32;;;;;;;26.02;16.67;;;5.00;99.90;;;;;;4938179;29;20075;-89
2022/12/11 09:43:06;;;;;;;25.20;16.25;;;5.00;99.90;;;;;;4958035;28;20046;-88
2022/12/11 09:45:34;;;;;;;24.73;16.38;;;5.10;99.90;;;;;;4940564;29;20513;-89
2022/12/11 09:48:08;;;;;;;28.20;16.38;;;5.10;99.90;;;;;;4944592;29;20065;-88
2022/12/11 09:50:37;;;;;;;28.40;17.85;;;5.10;99.90;;;;;;4944151;29;20082;-89
2022/12/11 09:53:13;;;;;;;24.50;16.35;;;5.10;99.90;;;;;;4967681;29;20047;-88
2022/12/11 09:55:50;;;;;;;23.35;15.90;;;5.20;99.90;;;;;;4950684;29;20047;-88
2022/12/11 09:58:27;;;;;;;24.38;14.32;;;5.20;99.90;;;;;;4975380;28;20099;-85
2022/12/11 10:01:01;;;;;;;28.00;16.48;;;5.20;99.90;;;;;;4950333;29;20035;-81
2022/12/11 10:03:52;;;;;;;24.77;14.30;;;5.20;99.90;;;;;;4943753;29;20192;-81
2022/12/11 10:06:25;;;;;;;25.23;15.48;;;5.20;99.90;;;;;;4966504;29;20118;-90
2022/12/11 10:09:03;;;;;;;23.90;16.05;;;5.10;99.90;;;;;;4969301;29;20035;-89
2022/12/11 10:11:58;;;;;;;24.17;14.85;;;5.20;99.90;;;;;;4946051;29;20048;-90
2022/12/11 10:14:37;;;;;;;23.55;14.88;;;5.20;99.90;;;;;;4943295;29;20059;-89
2022/12/11 10:17:13;;;;;;;23.27;14.25;;;5.30;99.90;;;;;;4943333;29;20051;-89
2022/12/11 10:19:42;;;;;;;26.75;16.58;;;5.30;99.90;;;;;;4961481;29;20071;-90
2022/12/11 10:22:17;;;;;;;26.38;16.05;;;5.40;99.90;;;;;;4962474;29;20094;-88
2022/12/11 10:24:57;;;;;;;25.90;16.67;;;5.40;99.90;;;;;;4960996;29;20042;-90
2022/12/11 10:27:30;;;;;;;34.55;20.17;;;5.50;99.90;;;;;;4962188;29;20074;-91
2022/12/11 10:30:09;;;;;;;28.98;17.92;;;5.60;99.90;;;;;;4963334;29;20099;-91
2022/12/11 10:32:44;;;;;;;30.88;18.02;;;5.60;99.90;;;;;;4961724;29;20498;-91
2022/12/11 10:35:20;;;;;;;30.67;18.33;;;5.70;99.90;;;;;;4962238;29;20074;-90
2022/12/11 10:37:47;;;;;;;32.20;19.35;;;5.60;99.90;;;;;;4960744;29;20027;-88
2022/12/11 10:40:16;;;;;;;33.53;20.75;;;5.60;99.90;;;;;;4960775;29;20058;-93
2022/12/11 10:42:53;;;;;;;32.22;20.17;;;5.60;99.90;;;;;;4960704;29;20118;-83
2022/12/11 10:45:21;;;;;;;36.60;21.52;;;5.60;99.90;;;;;;4961748;29;20043;-85
2022/12/11 10:47:49;;;;;;;39.40;22.95;;;5.60;99.90;;;;;;4958494;29;20043;-85
2022/12/11 10:50:25;;;;;;;47.38;26.55;;;5.70;99.90;;;;;;4957527;29;20070;-86
2022/12/11 10:52:53;;;;;;;39.72;25.05;;;5.60;99.90;;;;;;4941876;29;20538;-89
2022/12/11 10:55:24;;;;;;;45.45;25.45;;;5.60;99.90;;;;;;4956222;28;20043;-91
2022/12/11 10:58:00;;;;;;;41.20;24.88;;;5.70;99.90;;;;;;4941045;29;20066;-86
2022/12/11 11:00:35;;;;;;;43.53;25.58;;;5.70;99.90;;;;;;4959106;29;20046;-88
2022/12/11 11:03:06;;;;;;;43.95;26.05;;;5.70;99.90;;;;;;4959000;29;20035;-91
2022/12/11 11:05:41;;;;;;;55.65;27.60;;;5.70;99.90;;;;;;4970611;29;20027;-89
2022/12/11 11:08:15;;;;;;;55.20;27.38;;;5.70;99.90;;;;;;4967942;29;20134;-85
2022/12/11 11:10:54;;;;;;;52.85;27.67;;;5.70;99.90;;;;;;4961184;29;20043;-91
2022/12/11 11:13:27;;;;;;;50.13;26.73;;;5.80;99.90;;;;;;4966331;29;20043;-89
2022/12/11 11:16:00;;;;;;;49.47;26.50;;;5.80;99.90;;;;;;4968676;28;20039;-89
2022/12/11 11:18:29;;;;;;;44.75;25.30;;;5.90;99.90;;;;;;4961003;29;20051;-87
2022/12/11 11:20:58;;;;;;;44.50;26.35;;;5.90;99.90;;;;;;4962699;29;20059;-90
2022/12/11 11:23:26;;;;;;;44.42;25.35;;;5.90;99.90;;;;;;4964689;29;20043;-90
2022/12/11 11:25:56;;;;;;;40.53;25.20;;;5.90;99.90;;;;;;4964087;28;20051;-93
2022/12/11 11:28:28;;;;;;;45.88;28.15;;;5.80;99.90;;;;;;4963021;29;20043;-93
2022/12/11 11:31:03;;;;;;;39.95;24.17;;;5.90;99.90;;;;;;4958379;29;20413;-90
2022/12/11 11:33:32;;;;;;;44.17;23.50;;;5.90;99.90;;;;;;4963250;29;20043;-86
2022/12/11 11:36:02;;;;;;;35.50;21.25;;;5.90;99.90;;;;;;4958925;28;20059;-87
2022/12/11 11:38:35;;;;;;;31.15;20.38;;;5.80;99.90;;;;;;4958821;29;20121;-87
2022/12/11 11:41:12;;;;;;;32.10;20.67;;;5.80;99.90;;;;;;4957238;29;20047;-87
2022/12/11 11:43:45;;;;;;;28.67;18.13;;;5.70;99.90;;;;;;4958680;29;20039;-93
2022/12/11 11:46:17;;;;;;;30.13;18.70;;;5.80;99.90;;;;;;4958281;29;20042;-87
2022/12/11 11:48:54;;;;;;;31.02;17.77;;;5.80;99.90;;;;;;4959268;29;20145;-92
2022/12/11 11:51:29;;;;;;;31.17;19.45;;;5.90;99.90;;;;;;4960742;29;20039;-85
2022/12/11 11:54:00;;;;;;;30.13;19.75;;;5.90;99.90;;;;;;4943032;29;20046;-92
2022/12/11 11:56:35;;;;;;;31.92;20.65;;;5.80;99.90;;;;;;4963565;28;20054;-90
2022/12/11 11:59:13;;;;;;;27.42;17.90;;;5.80;99.90;;;;;;4943886;29;20566;-88
2022/12/11 12:01:42;;;;;;;26.13;17.48;;;5.70;99.90;;;;;;4958258;29;20039;-86
2022/12/11 12:04:11;;;;;;;27.95;17.60;;;5.80;99.90;;;;;;4956880;29;20434;-82
2022/12/11 12:07:07;;;;;;;25.52;16.60;;;5.90;99.90;;;;;;4954735;28;20049;-84
2022/12/11 12:09:50;;;;;;;26.58;17.60;;;5.80;99.90;;;;;;4957707;29;20063;-85
2022/12/11 12:12:32;;;;;;;25.65;17.10;;;5.80;99.90;;;;;;4960260;29;20102;-90
2022/12/11 12:15:27;;;;;;;25.63;17.48;;;5.80;99.90;;;;;;4941436;29;20059;-87
2022/12/11 12:17:59;;;;;;;30.27;19.67;;;5.80;99.90;;;;;;4953310;29;20042;-90
2022/12/11 12:20:39;;;;;;;27.02;17.65;;;5.90;99.90;;;;;;4964054;29;20062;-91
2022/12/11 12:23:29;;;;;;;33.13;20.08;;;5.90;99.90;;;;;;4957037;29;20050;-90
2022/12/11 12:26:06;;;;;;;29.20;19.15;;;5.90;99.90;;;;;;4950255;29;20051;-89
2022/12/11 12:28:50;;;;;;;29.80;20.23;;;5.90;99.90;;;;;;4940860;29;20582;-90
2022/12/11 12:31:35;;;;;;;33.90;22.25;;;5.90;99.90;;;;;;4955483;29;20043;-89
2022/12/11 12:34:10;;;;;;;28.40;19.88;;;5.90;99.90;;;;;;4956617;29;20070;-91
2022/12/11 12:36:46;;;;;;;30.00;19.50;;;5.80;99.90;;;;;;4956832;29;20047;-89
2022/12/11 12:39:22;;;;;;;27.85;19.27;;;5.70;99.90;;;;;;4939079;29;20042;-90
2022/12/11 12:41:57;;;;;;;35.58;23.23;;;5.80;99.90;;;;;;4938877;29;20047;-89
2022/12/11 12:44:27;;;;;;;27.77;18.43;;;5.90;99.90;;;;;;4955080;29;20106;-88
2022/12/11 12:47:03;;;;;;;29.08;18.65;;;5.80;99.90;;;;;;4956176;29;20294;-90
2022/12/11 12:49:40;;;;;;;27.48;18.65;;;5.80;99.90;;;;;;4957708;29;20039;-90
2022/12/11 12:52:15;;;;;;;25.00;16.60;;;5.80;99.90;;;;;;4958642;29;20039;-89
2022/12/11 12:55:12;;;;;;;24.88;16.70;;;5.80;99.90;;;;;;4960256;29;20360;-89
2022/12/11 12:57:35;;;;;;;28.95;17.00;;;5.80;99.90;;;;;;4957535;29;20518;-86
2022/12/11 13:00:02;;;;;;;22.00;13.35;;;5.70;99.90;;;;;;4956396;29;20043;-91
2022/12/11 13:02:32;;;;;;;22.05;14.98;;;5.70;99.90;;;;;;4956833;29;20043;-86
2022/12/11 13:05:04;;;;;;;26.23;16.20;;;5.60;99.90;;;;;;4939328;28;20063;-87
2022/12/11 13:07:33;;;;;;;22.48;13.88;;;5.60;99.90;;;;;;4955107;29;20036;-85
2022/12/11 13:10:06;;;;;;;25.63;15.05;;;5.60;99.90;;;;;;4958738;29;20062;-90
2022/12/11 13:12:42;;;;;;;21.55;13.65;;;5.60;99.90;;;;;;4955286;29;20047;-86
2022/12/11 13:18:34;;;;;;;21.48;15.25;;;5.60;99.90;;;;;;4950971;29;19922;-91